createdAt,value
2019-06-27T03:34:23.241Z,100.00
2019-06-27T03:36:53.491Z,100.00
2019-06-27T03:39:23.748Z,100.00
2019-06-27T03:41:54.029Z,100.00
2019-06-27T03:44:24.270Z,100.00
2019-06-27T03:46:54.455Z,100.00
2019-06-27T03:49:25.478Z,100.00
2019-06-27T03:51:56.656Z,100.00
2019-06-27T03:54:26.896Z,100.00
2019-06-27T03:56:57.948Z,100.00
2019-06-27T03:59:28.196Z,100.00
2019-06-27T04:01:58.448Z,100.00
2019-06-27T04:04:51.667Z,100.00
2019-06-27T04:07:47.450Z,100.00
2019-06-27T04:10:45.193Z,100.00
2019-06-27T04:13:40.908Z,100.00
2019-06-27T04:16:38.031Z,100.00
2019-06-27T04:19:35.225Z,100.00
2019-06-27T04:22:37.708Z,100.00
2019-06-27T04:25:33.273Z,100.00
2019-06-27T04:28:30.184Z,100.00
2019-06-27T04:31:27.002Z,100.00
2019-06-27T04:34:23.367Z,100.00
2019-06-27T04:37:20.046Z,100.00
2019-06-27T04:40:15.508Z,100.00
2019-06-27T04:43:13.128Z,100.00
2019-06-27T04:46:09.480Z,100.00
2019-06-27T04:49:06.016Z,100.00
2019-06-27T04:52:01.518Z,100.00
2019-06-27T04:55:02.879Z,100.00
2019-06-27T04:57:53.999Z,100.00
2019-06-27T05:00:51.938Z,100.00
2019-06-27T05:03:46.591Z,100.00
2019-06-27T05:06:43.199Z,100.00
2019-06-27T05:09:38.728Z,100.00
2019-06-27T05:12:36.612Z,100.00
2019-06-27T05:15:33.208Z,100.00
2019-06-27T05:18:29.136Z,100.00
2019-06-27T05:21:24.694Z,100.00
2019-06-27T05:24:22.303Z,100.00
2019-06-27T05:27:18.698Z,100.00
2019-06-27T05:30:14.440Z,100.00
2019-06-27T05:33:12.421Z,100.00
2019-06-27T05:36:08.931Z,100.00
2019-06-27T05:39:06.856Z,100.00
2019-06-27T05:42:02.335Z,100.00
2019-06-27T05:44:59.914Z,100.00
2019-06-27T05:47:56.632Z,100.00
2019-06-27T05:50:52.217Z,100.00
2019-06-27T05:53:49.729Z,100.00
2019-06-27T05:56:45.229Z,100.00
2019-06-27T05:59:42.136Z,100.00
2019-06-27T06:02:37.925Z,100.00
2019-06-27T06:05:35.713Z,100.00
2019-06-27T06:08:32.034Z,100.00
2019-06-27T06:11:29.394Z,100.00
2019-06-27T06:14:28.049Z,100.00
2019-06-27T06:17:23.819Z,100.00
2019-06-27T06:20:21.552Z,100.00
2019-06-27T06:23:16.986Z,100.00
2019-06-27T06:26:13.023Z,100.00
2019-06-27T06:29:09.244Z,100.00
2019-06-27T06:32:06.084Z,100.00
2019-06-27T06:35:04.052Z,100.00
2019-06-27T06:38:01.219Z,100.00
2019-06-27T06:40:59.080Z,100.00
2019-06-27T06:43:54.659Z,100.00
2019-06-27T06:46:51.182Z,100.00
2019-06-27T06:49:46.937Z,100.00
2019-06-27T06:52:43.928Z,100.00
2019-06-27T06:55:42.881Z,100.00
2019-06-27T06:58:36.846Z,100.00
2019-06-27T07:01:33.468Z,100.00
2019-06-27T07:04:28.948Z,100.00
2019-06-27T07:07:25.693Z,100.00
2019-06-27T07:10:22.396Z,100.00
2019-06-27T07:13:20.125Z,100.00
2019-06-27T07:16:16.649Z,100.00
2019-06-27T07:19:12.424Z,100.00
2019-06-27T07:22:08.103Z,100.00
2019-06-27T07:25:06.106Z,100.00
2019-06-27T07:28:01.663Z,100.00
2019-06-27T07:30:58.363Z,100.00
2019-06-27T07:33:54.166Z,93.52
2019-06-27T07:36:51.692Z,93.09
2019-06-27T07:39:51.514Z,94.80
2019-06-27T07:42:49.380Z,91.60
2019-06-27T07:45:46.259Z,87.19
2019-06-27T07:48:42.860Z,82.82
2019-06-27T07:51:38.578Z,87.03
2019-06-27T07:54:36.335Z,82.15
2019-06-27T07:57:33.888Z,83.95
2019-06-27T08:00:29.501Z,86.31
2019-06-27T08:03:26.092Z,86.82
2019-06-27T08:06:23.782Z,84.30
2019-06-27T08:09:20.314Z,83.68
2019-06-27T08:12:16.943Z,79.43
2019-06-27T08:15:12.212Z,81.31
2019-06-27T08:18:08.807Z,81.21
2019-06-27T08:21:04.440Z,81.62
2019-06-27T08:24:00.764Z,83.72
2019-06-27T08:26:57.417Z,78.87
2019-06-27T08:29:54.035Z,81.39
2019-06-27T08:32:50.889Z,83.12
2019-06-27T08:35:46.396Z,81.42
2019-06-27T08:38:43.200Z,83.50
2019-06-27T08:41:39.842Z,81.79
2019-06-27T08:44:37.106Z,82.69
2019-06-27T08:47:33.955Z,80.14
2019-06-27T08:50:29.749Z,76.19
2019-06-27T08:53:27.361Z,75.84
2019-06-27T08:56:25.128Z,76.88
2019-06-27T08:59:21.983Z,76.37
2019-06-27T09:02:17.612Z,80.13
2019-06-27T09:05:14.509Z,78.16
2019-06-27T09:08:10.561Z,77.74
2019-06-27T09:11:07.391Z,77.95
2019-06-27T09:14:03.526Z,74.37
2019-06-27T09:17:01.148Z,72.67
2019-06-27T09:19:59.022Z,74.31
2019-06-27T09:22:55.678Z,72.42
2019-06-27T09:25:51.336Z,71.60
2019-06-27T09:28:48.148Z,70.38
2019-06-27T09:31:43.010Z,71.94
2019-06-27T09:34:39.666Z,69.19
2019-06-27T09:37:36.216Z,68.31
2019-06-27T09:40:33.014Z,74.27
2019-06-27T09:43:32.390Z,72.87
2019-06-27T09:46:29.035Z,73.81
2019-06-27T09:49:24.713Z,74.75
2019-06-27T09:52:21.438Z,72.00
2019-06-27T09:55:17.242Z,69.11
2019-06-27T09:58:16.232Z,70.93
2019-06-27T10:01:11.564Z,69.68
2019-06-27T10:04:08.690Z,72.10
2019-06-27T10:07:04.166Z,72.10
2019-06-27T10:10:00.115Z,65.34
2019-06-27T10:12:55.731Z,66.44
2019-06-27T10:15:52.558Z,62.22
2019-06-27T10:18:50.109Z,64.91
2019-06-27T10:21:46.690Z,67.84
2019-06-27T10:24:42.097Z,68.85
2019-06-27T10:27:44.352Z,67.17
2019-06-27T10:30:40.165Z,69.42
2019-06-27T10:33:37.611Z,67.55
2019-06-27T10:36:33.307Z,62.92
2019-06-27T10:39:30.155Z,65.51
2019-06-27T10:42:26.197Z,64.37
2019-06-27T10:45:22.734Z,66.69
2019-06-27T10:48:20.296Z,67.79
2019-06-27T10:51:16.835Z,69.11
2019-06-27T10:54:12.400Z,67.49
2019-06-27T10:57:09.434Z,66.73
2019-06-27T11:00:06.143Z,66.95
2019-06-27T11:03:14.908Z,66.31
2019-06-27T11:05:58.713Z,65.56
2019-06-27T11:08:55.275Z,61.80
2019-06-27T11:11:50.275Z,62.04
2019-06-27T11:14:58.623Z,62.78
2019-06-27T11:17:44.658Z,65.06
2019-06-27T11:20:42.667Z,66.32
2019-06-27T11:23:38.531Z,68.05
2019-06-27T11:26:35.325Z,66.84
2019-06-27T11:29:32.014Z,63.79
2019-06-27T11:32:28.450Z,63.30
2019-06-27T11:35:23.575Z,62.50
2019-06-27T11:38:21.476Z,60.92
2019-06-27T11:41:17.044Z,64.65
2019-06-27T11:44:13.898Z,66.85
2019-06-27T11:47:09.882Z,61.08
2019-06-27T11:50:07.545Z,60.20
2019-06-27T11:53:02.894Z,55.96
2019-06-27T11:55:59.193Z,55.90
2019-06-27T11:58:57.095Z,54.91
2019-06-27T12:01:53.640Z,57.27
2019-06-27T12:04:48.641Z,56.78
2019-06-27T12:07:45.377Z,53.86
2019-06-27T12:10:40.939Z,58.87
2019-06-27T12:13:37.701Z,57.26
2019-06-27T12:16:33.377Z,59.61
2019-06-27T12:19:31.033Z,62.66
2019-06-27T12:22:26.609Z,59.36
2019-06-27T12:25:24.815Z,60.88
2019-06-27T12:28:20.317Z,57.28
2019-06-27T12:31:21.059Z,59.46
2019-06-27T12:34:12.387Z,51.70
2019-06-27T12:37:10.031Z,52.81
2019-06-27T12:40:06.745Z,56.67
2019-06-27T12:43:04.465Z,55.51
2019-06-27T12:46:00.264Z,53.50
2019-06-27T12:48:57.251Z,52.63
2019-06-27T12:51:54.954Z,50.41
2019-06-27T12:54:51.470Z,54.32
2019-06-27T12:57:47.285Z,51.64
2019-06-27T13:00:43.932Z,55.04
2019-06-27T13:03:40.710Z,51.06
2019-06-27T13:06:37.312Z,53.84
2019-06-27T13:09:35.147Z,50.88
2019-06-27T13:12:32.625Z,53.74
2019-06-27T13:15:28.183Z,54.23
2019-06-27T13:18:25.001Z,53.91
2019-06-27T13:21:21.038Z,52.30
2019-06-27T13:24:17.201Z,51.29
2019-06-27T13:27:12.767Z,51.86
2019-06-27T13:30:10.554Z,53.49
2019-06-27T13:33:10.589Z,54.42
2019-06-27T13:36:07.251Z,58.53
2019-06-27T13:39:06.145Z,54.57
2019-06-27T13:41:59.565Z,55.09
2019-06-27T13:44:56.228Z,53.49
2019-06-27T13:47:51.958Z,54.71
2019-06-27T13:50:49.238Z,51.47
2019-06-27T13:53:45.979Z,48.33
2019-06-27T13:56:46.880Z,48.33
2019-06-27T13:59:42.842Z,49.30
2019-06-27T14:02:39.660Z,50.17
2019-06-27T14:05:41.056Z,49.49
2019-06-27T14:08:36.251Z,47.26
2019-06-27T14:11:33.837Z,50.81
2019-06-27T14:14:29.621Z,49.16
2019-06-27T14:17:25.813Z,45.17
2019-06-27T14:20:21.737Z,45.17
2019-06-27T14:23:18.462Z,46.23
2019-06-27T14:26:13.865Z,47.16
2019-06-27T14:29:10.781Z,45.90
2019-06-27T14:32:07.772Z,45.58
2019-06-27T14:35:14.745Z,43.10
2019-06-27T14:37:59.563Z,43.99
2019-06-27T14:41:05.112Z,44.23
2019-06-27T14:44:00.661Z,43.96
2019-06-27T14:47:07.468Z,42.04
2019-06-27T14:50:03.460Z,40.87
2019-06-27T14:53:01.561Z,43.79
2019-06-27T14:55:58.226Z,43.42
2019-06-27T14:58:57.327Z,42.44
2019-06-27T15:01:54.039Z,40.04
2019-06-27T15:04:50.852Z,41.59
2019-06-27T15:07:46.113Z,40.44
2019-06-27T15:10:42.674Z,42.17
2019-06-27T15:13:38.434Z,39.75
2019-06-27T15:16:34.974Z,39.15
2019-06-27T15:19:30.554Z,41.28
2019-06-27T15:22:27.179Z,41.28
2019-06-27T15:25:22.466Z,41.01
2019-06-27T15:28:18.368Z,41.96
2019-06-27T15:31:13.914Z,42.72
2019-06-27T15:34:10.426Z,44.05
2019-06-27T15:37:06.100Z,43.82
2019-06-27T15:40:02.793Z,44.18
2019-06-27T15:42:59.334Z,45.52
2019-06-27T15:45:55.934Z,43.51
2019-06-27T15:48:51.530Z,42.64
2019-06-27T15:51:49.124Z,42.28
2019-06-27T15:54:45.795Z,42.98
2019-06-27T15:57:42.569Z,43.51
2019-06-27T16:00:39.698Z,43.55
2019-06-27T16:03:37.082Z,46.17
2019-06-27T16:06:32.395Z,45.36
2019-06-27T16:09:29.107Z,46.26
2019-06-27T16:12:25.890Z,45.88
2019-06-27T16:15:23.626Z,46.02
2019-06-27T16:18:19.439Z,45.87
2019-06-27T16:21:16.040Z,45.12
2019-06-27T16:24:12.697Z,45.84
2019-06-27T16:27:08.493Z,46.25
2019-06-27T16:30:04.728Z,47.14
2019-06-27T16:33:01.148Z,45.50
2019-06-27T16:35:56.776Z,47.37
2019-06-27T16:38:52.437Z,49.90
2019-06-27T16:41:49.201Z,49.21
2019-06-27T16:44:44.945Z,50.22
2019-06-27T16:47:41.545Z,49.49
2019-06-27T16:50:37.422Z,48.84
2019-06-27T16:53:34.992Z,48.43
2019-06-27T16:56:31.941Z,48.13
2019-06-27T16:59:29.644Z,48.55
2019-06-27T17:02:25.211Z,50.07
2019-06-27T17:05:22.157Z,49.36
2019-06-27T17:08:17.608Z,48.90
2019-06-27T17:11:14.408Z,48.67
2019-06-27T17:14:11.983Z,49.69
2019-06-27T17:17:07.879Z,49.25
2019-06-27T17:20:04.587Z,48.50
2019-06-27T17:23:05.710Z,50.72
2019-06-27T17:26:02.078Z,47.35
2019-06-27T17:28:58.277Z,49.68
2019-06-27T17:31:55.116Z,47.92
2019-06-27T17:34:51.815Z,47.92
2019-06-27T17:37:48.125Z,49.01
2019-06-27T17:40:44.739Z,49.35
2019-06-27T17:43:41.688Z,46.74
2019-06-27T17:46:37.993Z,46.03
2019-06-27T17:49:33.725Z,45.85
2019-06-27T17:52:31.496Z,45.50
2019-06-27T17:55:25.685Z,45.23
2019-06-27T17:58:23.840Z,45.09
2019-06-27T18:01:20.556Z,42.92
2019-06-27T18:04:17.168Z,44.42
2019-06-27T18:07:14.973Z,49.16
2019-06-27T18:10:09.711Z,46.94
2019-06-27T18:13:06.279Z,47.11
2019-06-27T18:16:02.251Z,48.41
2019-06-27T18:19:00.749Z,51.20
2019-06-27T18:21:54.851Z,54.17
2019-06-27T18:24:51.450Z,49.32
2019-06-27T18:27:48.176Z,48.81
2019-06-27T18:30:47.536Z,51.50
2019-06-27T18:33:42.998Z,47.14
2019-06-27T18:36:39.697Z,47.37
2019-06-27T18:39:35.484Z,46.39
2019-06-27T18:42:35.331Z,46.60
2019-06-27T18:45:31.157Z,47.47
2019-06-27T18:48:28.486Z,47.88
2019-06-27T18:51:24.046Z,45.63
2019-06-27T18:54:20.497Z,44.95
2019-06-27T18:57:17.159Z,43.55
2019-06-27T19:00:13.773Z,43.54
2019-06-27T19:03:09.726Z,41.45
2019-06-27T19:06:06.420Z,41.04
2019-06-27T19:09:02.590Z,40.59
2019-06-27T19:11:58.304Z,41.18
2019-06-27T19:14:54.842Z,43.91
2019-06-27T19:17:50.099Z,45.40
2019-06-27T19:20:50.376Z,42.46
2019-06-27T19:23:53.626Z,41.48
2019-06-27T19:26:50.591Z,40.12
2019-06-27T19:29:47.061Z,40.00
2019-06-27T19:32:42.201Z,39.66
2019-06-27T19:35:39.898Z,39.57
2019-06-27T19:38:35.599Z,40.12
2019-06-27T19:41:32.264Z,38.52
2019-06-27T19:44:28.245Z,38.76
2019-06-27T19:47:24.085Z,41.82
2019-06-27T19:50:20.049Z,38.36
2019-06-27T19:53:16.615Z,41.57
2019-06-27T19:56:13.832Z,43.09
2019-06-27T19:59:11.693Z,43.41
2019-06-27T20:02:08.566Z,45.72
2019-06-27T20:05:05.399Z,48.12
2019-06-27T20:08:17.299Z,47.53
2019-06-27T20:10:58.202Z,48.45
2019-06-27T20:13:53.800Z,46.54
2019-06-27T20:16:51.564Z,49.55
2019-06-27T20:19:47.764Z,47.73
2019-06-27T20:22:43.343Z,48.37
2019-06-27T20:25:40.535Z,48.54
2019-06-27T20:28:36.239Z,47.24
2019-06-27T20:31:31.983Z,48.40
2019-06-27T20:34:27.550Z,48.35
2019-06-27T20:37:26.941Z,47.59
2019-06-27T20:40:21.214Z,48.45
2019-06-27T20:43:16.961Z,42.56
2019-06-27T20:46:14.615Z,41.54
2019-06-27T20:49:09.828Z,40.64
2019-06-27T20:52:06.446Z,42.80
2019-06-27T20:55:02.219Z,40.81
2019-06-27T20:57:59.075Z,44.51
2019-06-27T21:00:55.747Z,42.24
2019-06-27T21:03:52.050Z,41.51
2019-06-27T21:06:48.635Z,40.35
2019-06-27T21:09:45.372Z,40.38
2019-06-27T21:12:42.269Z,39.90
2019-06-27T21:15:38.185Z,41.61
2019-06-27T21:18:34.832Z,42.48
2019-06-27T21:21:30.490Z,43.86
2019-06-27T21:24:27.186Z,45.92
2019-06-27T21:27:23.673Z,45.83
2019-06-27T21:30:20.255Z,47.45
2019-06-27T21:33:20.037Z,47.66
2019-06-27T21:36:17.819Z,48.01
2019-06-27T21:39:13.709Z,49.60
2019-06-27T21:42:10.581Z,47.97
2019-06-27T21:45:06.178Z,48.50
2019-06-27T21:48:04.788Z,48.55
2019-06-27T21:51:00.717Z,47.04
2019-06-27T21:53:56.841Z,48.85
2019-06-27T21:56:52.936Z,48.41
2019-06-27T21:59:50.304Z,45.23
2019-06-27T22:02:45.122Z,43.41
2019-06-27T22:05:41.932Z,44.86
2019-06-27T22:08:38.733Z,46.99
2019-06-27T22:11:35.247Z,46.98
2019-06-27T22:14:31.809Z,47.23
2019-06-27T22:17:28.330Z,48.33
2019-06-27T22:20:25.665Z,47.90
2019-06-27T22:23:21.175Z,50.58
2019-06-27T22:26:17.479Z,49.90
2019-06-27T22:29:13.452Z,50.19
2019-06-27T22:32:10.422Z,49.26
2019-06-27T22:35:06.351Z,49.88
2019-06-27T22:38:16.549Z,52.01
2019-06-27T22:41:25.741Z,52.64
2019-06-27T22:44:33.649Z,52.85
2019-06-27T22:47:43.356Z,54.72
2019-06-27T22:50:51.241Z,55.95
2019-06-27T22:53:50.966Z,55.40
2019-06-27T22:56:46.445Z,54.32
2019-06-27T22:59:43.493Z,53.61
2019-06-27T23:02:39.314Z,50.40
2019-06-27T23:05:35.011Z,51.54
2019-06-27T23:08:32.861Z,53.48
2019-06-27T23:11:28.658Z,55.06
2019-06-27T23:14:25.491Z,57.35
2019-06-27T23:17:20.960Z,58.10
2019-06-27T23:20:18.086Z,59.01
2019-06-27T23:23:13.765Z,60.20
2019-06-27T23:26:10.433Z,60.79
2019-06-27T23:29:07.017Z,59.34
2019-06-27T23:32:03.625Z,59.68
2019-06-27T23:34:59.100Z,60.41
2019-06-27T23:37:56.673Z,59.99
2019-06-27T23:40:52.179Z,59.37
2019-06-27T23:43:48.541Z,56.95
2019-06-27T23:46:55.449Z,58.32
2019-06-27T23:49:52.006Z,58.41
2019-06-27T23:52:48.199Z,57.91
2019-06-27T23:55:43.859Z,57.54
2019-06-27T23:58:41.464Z,58.13
